createdAt,value
2023-07-21T00:12:14.495Z,16.04
2023-07-21T00:13:15.978Z,16.07
2023-07-21T00:15:30.990Z,16.16
2023-07-21T00:16:31.027Z,16.16
2023-07-21T00:17:31.155Z,16.17
2023-07-21T00:24:14.235Z,16.08
2023-07-21T00:25:13.788Z,16.13
2023-07-21T00:39:12.774Z,15.89
2023-07-21T01:04:31.286Z,16.06
2023-07-21T01:10:00.194Z,15.98
2023-07-21T01:15:05.993Z,16.04
2023-07-21T01:25:52.999Z,16.16
2023-07-21T01:31:35.273Z,16.13
2023-07-21T01:32:35.527Z,16.17
2023-07-21T01:33:35.348Z,16.07
2023-07-21T01:34:35.365Z,16.08
2023-07-21T01:35:35.390Z,16.18
2023-07-21T01:36:35.424Z,16.06
2023-07-21T01:37:35.445Z,16.13
2023-07-21T01:38:35.474Z,16.08
2023-07-21T01:39:35.547Z,16.06
2023-07-21T01:40:35.536Z,16.18
2023-07-21T01:41:35.613Z,16.16
2023-07-21T01:42:35.607Z,16.17
2023-07-21T01:44:36.869Z,16.13
2023-07-21T01:47:48.693Z,16.10
2023-07-21T01:49:48.596Z,16.14
2023-07-21T01:53:48.498Z,16.14
2023-07-21T01:58:43.120Z,15.96
2023-07-21T02:00:51.190Z,16.02
2023-07-21T02:07:08.664Z,16.06
2023-07-21T02:08:08.693Z,15.96
2023-07-21T02:09:08.723Z,16.17
2023-07-21T02:10:08.748Z,16.06
2023-07-21T03:11:55.838Z,15.95
2023-07-21T03:23:21.898Z,15.99
2023-07-21T03:27:22.018Z,15.99
2023-07-21T03:53:36.273Z,16.06
2023-07-21T03:54:27.179Z,15.95
2023-07-21T03:55:24.635Z,16.06
2023-07-21T03:57:24.670Z,16.07
2023-07-21T03:59:24.608Z,15.98
2023-07-21T04:01:24.669Z,15.98
2023-07-21T04:07:24.728Z,16.08
2023-07-21T04:34:26.506Z,16.16
2023-07-21T05:13:29.603Z,16.72
2023-07-21T05:19:26.794Z,16.90
2023-07-21T05:20:28.142Z,17.00
2023-07-21T05:21:26.852Z,17.10
2023-07-21T05:22:26.904Z,17.06
2023-07-21T05:23:26.925Z,17.12
2023-07-21T05:24:27.306Z,17.21
2023-07-21T05:25:26.983Z,17.21
2023-07-21T05:26:27.239Z,17.31
2023-07-21T05:27:27.346Z,17.30
2023-07-21T05:38:27.382Z,17.80
2023-07-21T05:40:27.410Z,17.83
2023-07-21T05:41:27.759Z,17.90
2023-07-21T05:42:27.481Z,17.81
2023-07-21T05:44:27.564Z,17.84
2023-07-21T05:46:27.939Z,17.79
2023-07-21T05:47:27.657Z,17.84
2023-07-21T05:48:28.067Z,17.83
2023-07-21T05:49:28.192Z,17.81
2023-07-21T06:08:28.277Z,18.32
2023-07-21T06:16:28.710Z,18.51
2023-07-21T06:18:28.545Z,18.53
2023-07-21T06:21:30.179Z,18.50
2023-07-21T06:32:06.877Z,19.30
2023-07-21T06:35:06.949Z,19.63
2023-07-21T06:36:07.584Z,19.57
2023-07-21T06:39:10.101Z,21.18
2023-07-21T06:41:09.754Z,22.26
2023-07-21T06:42:07.168Z,22.70
2023-07-21T06:43:07.199Z,23.01
2023-07-21T06:44:07.231Z,23.40
2023-07-21T06:45:07.272Z,23.71
2023-07-21T06:46:08.532Z,23.63
2023-07-21T06:47:07.320Z,23.72
2023-07-21T06:48:07.551Z,23.26
2023-07-21T06:49:11.020Z,23.01
2023-07-21T06:50:07.421Z,22.63
2023-07-21T06:51:07.447Z,22.44
2023-07-21T06:52:07.489Z,22.09
2023-07-21T06:53:07.834Z,21.82
2023-07-21T06:54:07.544Z,21.59
2023-07-21T06:55:07.592Z,21.34
2023-07-21T06:56:07.617Z,21.18
2023-07-21T06:57:07.643Z,21.15
2023-07-21T06:58:07.682Z,21.06
2023-07-21T06:59:07.728Z,21.03
2023-07-21T07:00:07.744Z,20.96
2023-07-21T07:01:07.972Z,20.78
2023-07-21T07:02:07.845Z,20.68
2023-07-21T07:03:08.510Z,20.71
2023-07-21T07:04:07.944Z,20.54
2023-07-21T07:05:07.912Z,20.58
2023-07-21T07:06:07.929Z,20.72
2023-07-21T07:07:07.963Z,20.66
2023-07-21T07:08:07.996Z,20.71
2023-07-21T07:09:08.231Z,20.72
2023-07-21T07:10:08.062Z,20.68
2023-07-21T07:11:08.293Z,20.58
2023-07-21T07:12:08.125Z,20.56
2023-07-21T07:13:08.156Z,20.56
2023-07-21T07:14:08.505Z,20.53
2023-07-21T07:15:08.230Z,20.67
2023-07-21T07:16:08.297Z,20.68
2023-07-21T07:17:08.304Z,20.46
2023-07-21T07:18:08.376Z,20.53
2023-07-21T07:20:08.398Z,20.96
2023-07-21T07:21:08.421Z,21.03
2023-07-21T07:23:08.693Z,21.40
2023-07-21T07:24:08.744Z,21.53
2023-07-21T07:34:10.046Z,21.23
2023-07-21T07:35:09.068Z,21.31
2023-07-21T07:39:10.884Z,21.49
2023-07-21T07:49:09.316Z,23.19
2023-07-21T07:50:09.661Z,23.63
2023-07-21T07:51:09.768Z,23.66
2023-07-21T07:53:09.448Z,23.12
2023-07-21T07:54:09.472Z,23.15
2023-07-21T07:55:09.519Z,23.60
2023-07-21T07:56:09.529Z,23.81
2023-07-21T07:57:09.561Z,24.36
2023-07-21T07:58:09.593Z,24.74
2023-07-21T07:59:09.629Z,24.92
2023-07-21T08:00:09.664Z,25.01
2023-07-21T08:01:09.729Z,25.42
2023-07-21T08:02:09.787Z,25.70
2023-07-21T08:03:09.841Z,26.04
2023-07-21T08:04:09.893Z,25.93
2023-07-21T08:05:09.851Z,25.48
2023-07-21T08:06:09.895Z,25.09
2023-07-21T08:07:09.902Z,24.77
2023-07-21T08:08:13.777Z,24.74
2023-07-21T08:09:09.971Z,24.36
2023-07-21T08:10:10.022Z,24.39
2023-07-21T08:11:10.061Z,24.56
2023-07-21T08:12:10.072Z,24.54
2023-07-21T08:13:10.106Z,24.24
2023-07-21T08:14:10.138Z,24.03
2023-07-21T08:15:10.175Z,23.99
2023-07-21T08:16:10.340Z,23.87
2023-07-21T08:17:10.363Z,23.66
2023-07-21T08:18:10.314Z,23.72
2023-07-21T08:19:10.332Z,23.71
2023-07-21T08:20:10.346Z,23.66
2023-07-21T08:21:10.376Z,23.60
2023-07-21T08:22:10.423Z,23.59
2023-07-21T08:23:23.207Z,23.44
2023-07-21T08:24:10.523Z,23.59
2023-07-21T08:25:10.514Z,23.70
2023-07-21T08:26:10.550Z,23.92
2023-07-21T08:27:13.271Z,24.03
2023-07-21T08:28:10.611Z,24.44
2023-07-21T08:29:10.648Z,24.71
2023-07-21T08:30:10.695Z,24.82
2023-07-21T08:31:10.760Z,24.74
2023-07-21T08:32:10.813Z,24.59
2023-07-21T08:33:10.839Z,24.69
2023-07-21T08:34:10.824Z,24.80
2023-07-21T08:35:10.860Z,24.89
2023-07-21T08:36:10.886Z,25.09
2023-07-21T08:37:10.957Z,25.04
2023-07-21T08:38:10.966Z,24.58
2023-07-21T08:39:10.989Z,24.58
2023-07-21T08:40:11.040Z,24.33
2023-07-21T08:41:11.060Z,24.18
2023-07-21T08:42:11.099Z,24.18
2023-07-21T08:43:11.159Z,24.03
2023-07-21T08:44:11.157Z,24.07
2023-07-21T08:45:13.199Z,24.08
2023-07-21T08:46:11.296Z,24.14
2023-07-21T08:47:11.258Z,24.07
2023-07-21T08:48:11.294Z,24.04
2023-07-21T08:49:11.333Z,24.07
2023-07-21T08:50:11.361Z,24.00
2023-07-21T08:51:11.394Z,24.22
2023-07-21T08:52:11.434Z,24.03
2023-07-21T08:53:14.200Z,24.09
2023-07-21T08:54:11.502Z,24.03
2023-07-21T08:55:11.536Z,23.90
2023-07-21T08:56:11.575Z,24.12
2023-07-21T08:57:11.598Z,23.97
2023-07-21T08:58:11.625Z,23.85
2023-07-21T08:59:11.995Z,23.64
2023-07-21T09:00:12.021Z,23.72
2023-07-21T09:01:11.770Z,23.70
2023-07-21T09:02:11.765Z,23.85
2023-07-21T09:03:11.942Z,23.94
2023-07-21T09:04:11.868Z,23.96
2023-07-21T09:05:11.903Z,23.99
2023-07-21T09:06:11.897Z,23.94
2023-07-21T09:07:11.932Z,23.74
2023-07-21T09:08:11.979Z,23.67
2023-07-21T09:09:12.000Z,23.71
2023-07-21T09:10:12.040Z,24.00
2023-07-21T09:11:12.064Z,24.34
2023-07-21T09:12:12.106Z,24.69
2023-07-21T09:13:12.146Z,24.61
2023-07-21T09:14:12.163Z,24.32
2023-07-21T09:15:12.226Z,24.08
2023-07-21T09:16:12.356Z,24.18
2023-07-21T09:17:12.264Z,23.93
2023-07-21T09:18:12.298Z,23.78
2023-07-21T09:19:12.339Z,23.67
2023-07-21T09:20:12.369Z,23.60
2023-07-21T09:21:12.413Z,24.02
2023-07-21T09:22:12.437Z,24.40
2023-07-21T09:23:12.465Z,24.90
2023-07-21T09:24:12.525Z,25.02
2023-07-21T09:25:12.532Z,24.93
2023-07-21T09:26:12.564Z,25.08
2023-07-21T09:27:12.614Z,25.12
2023-07-21T09:28:12.628Z,25.14
2023-07-21T09:29:13.084Z,25.20
2023-07-21T09:30:13.411Z,25.24
2023-07-21T09:31:13.970Z,25.05
2023-07-21T09:32:13.772Z,25.07
2023-07-21T09:35:38.686Z,25.01
2023-07-21T10:44:31.249Z,27.21
2023-07-21T10:45:31.461Z,26.99
2023-07-21T10:46:31.625Z,26.84
2023-07-21T10:47:31.416Z,26.72
2023-07-21T10:48:31.418Z,26.22
2023-07-21T10:49:31.399Z,25.89
2023-07-21T10:50:31.431Z,25.75
2023-07-21T10:51:31.675Z,25.66
2023-07-21T10:52:32.005Z,25.75
2023-07-21T10:53:31.541Z,25.48
2023-07-21T10:54:31.566Z,25.37
2023-07-21T10:55:31.615Z,25.17
2023-07-21T10:56:31.634Z,25.09
2023-07-21T10:57:32.183Z,25.09
2023-07-21T10:59:31.730Z,24.59
2023-07-21T11:00:31.837Z,24.70
2023-07-21T11:01:31.868Z,24.63
2023-07-21T11:02:31.908Z,24.58
2023-07-21T11:03:31.983Z,24.58
2023-07-21T11:04:31.903Z,24.63
2023-07-21T11:05:31.936Z,24.71
2023-07-21T11:06:31.972Z,24.71
2023-07-21T11:07:31.990Z,24.78
2023-07-21T11:08:32.024Z,24.75
2023-07-21T11:09:32.057Z,24.67
2023-07-21T11:10:32.095Z,24.70
2023-07-21T11:11:32.123Z,24.78
2023-07-21T11:12:32.160Z,24.92
2023-07-21T11:13:32.200Z,24.83
2023-07-21T11:14:32.223Z,24.90
2023-07-21T11:15:32.269Z,24.78
2023-07-21T11:16:32.360Z,24.75
2023-07-21T11:17:32.373Z,24.89
2023-07-21T11:18:32.385Z,25.02
2023-07-21T11:19:32.415Z,25.14
2023-07-21T11:20:32.421Z,25.27
2023-07-21T11:21:32.455Z,25.24
2023-07-21T11:22:32.491Z,25.02
2023-07-21T11:23:32.520Z,24.74
2023-07-21T11:24:32.860Z,24.75
2023-07-21T11:25:32.584Z,24.59
2023-07-21T11:26:32.621Z,24.71
2023-07-21T11:27:32.662Z,24.58
2023-07-21T11:28:32.697Z,24.55
2023-07-21T11:29:32.714Z,24.56
2023-07-21T11:30:32.754Z,24.63
2023-07-21T11:31:32.815Z,24.74
2023-07-21T11:32:33.150Z,24.69
2023-07-21T11:33:32.849Z,24.63
2023-07-21T11:34:32.897Z,24.66
2023-07-21T11:35:32.935Z,24.74
2023-07-21T11:36:32.946Z,24.80
2023-07-21T11:37:33.181Z,24.58
2023-07-21T11:38:33.013Z,24.37
2023-07-21T11:39:33.045Z,24.33
2023-07-21T11:40:33.092Z,24.12
2023-07-21T11:41:33.109Z,24.04
2023-07-21T11:42:33.150Z,23.97
2023-07-21T11:43:33.189Z,23.87
2023-07-21T11:44:33.250Z,23.77
2023-07-21T11:45:33.240Z,23.75
2023-07-21T11:46:33.311Z,23.71
2023-07-21T11:47:33.350Z,23.94
2023-07-21T11:48:33.360Z,23.89
2023-07-21T11:49:33.371Z,23.92
2023-07-21T11:50:33.611Z,23.96
2023-07-21T11:51:33.437Z,24.00
2023-07-21T11:52:33.671Z,24.07
2023-07-21T11:53:33.511Z,24.12
2023-07-21T11:54:33.687Z,24.17
2023-07-21T11:55:33.567Z,24.27
2023-07-21T11:56:33.601Z,24.36
2023-07-21T11:57:33.631Z,24.58
2023-07-21T11:58:33.672Z,24.92
2023-07-21T11:59:33.698Z,24.87
2023-07-21T12:00:33.725Z,25.09
2023-07-21T12:01:33.779Z,25.07
2023-07-21T12:02:33.862Z,25.19
2023-07-21T12:03:33.963Z,25.44
2023-07-21T12:04:33.901Z,25.33
2023-07-21T12:05:33.895Z,25.29
2023-07-21T12:06:33.918Z,25.29
2023-07-21T12:07:33.962Z,25.44
2023-07-21T12:08:33.988Z,25.48
2023-07-21T12:09:34.072Z,25.48
2023-07-21T12:10:34.056Z,25.47
2023-07-21T12:11:34.291Z,25.27
2023-07-21T12:12:34.121Z,25.29
2023-07-21T12:13:34.160Z,25.24
2023-07-21T12:14:34.185Z,25.32
2023-07-21T12:15:34.230Z,25.20
2023-07-21T12:16:34.475Z,24.96
2023-07-21T12:17:34.311Z,24.89
2023-07-21T12:18:34.334Z,24.85
2023-07-21T12:19:34.340Z,24.86
2023-07-21T12:20:34.413Z,24.80
2023-07-21T12:21:41.283Z,24.82
2023-07-21T12:22:34.447Z,24.87
2023-07-21T12:23:34.678Z,24.87
2023-07-21T12:24:34.570Z,24.90
2023-07-21T12:25:34.538Z,24.96
2023-07-21T12:26:34.577Z,25.09
2023-07-21T12:27:34.818Z,25.30
2023-07-21T12:28:34.805Z,25.23
2023-07-21T12:29:44.982Z,25.26
2023-07-21T12:30:35.341Z,25.20
2023-07-21T12:31:35.142Z,25.33
2023-07-21T12:32:34.908Z,25.09
2023-07-21T12:33:34.887Z,25.08
2023-07-21T12:34:34.937Z,25.02
2023-07-21T12:35:34.869Z,24.97
2023-07-21T12:36:34.950Z,25.07
2023-07-21T12:37:34.951Z,24.90
2023-07-21T12:38:34.980Z,24.92
2023-07-21T12:39:35.015Z,24.92
2023-07-21T12:40:35.048Z,24.92
2023-07-21T12:41:35.076Z,24.86
2023-07-21T12:42:35.106Z,24.87
2023-07-21T12:43:35.151Z,24.87
2023-07-21T12:44:35.160Z,24.97
2023-07-21T12:45:35.220Z,25.20
2023-07-21T12:46:35.254Z,25.29
2023-07-21T12:47:35.264Z,25.49
2023-07-21T12:48:35.301Z,25.47
2023-07-21T12:49:35.339Z,25.45
2023-07-21T12:50:35.359Z,25.33
2023-07-21T12:51:35.591Z,25.27
2023-07-21T12:52:35.452Z,25.45
2023-07-21T12:53:35.453Z,25.60
2023-07-21T12:54:35.697Z,25.70
2023-07-21T12:55:35.531Z,25.86
2023-07-21T12:56:35.551Z,25.85
2023-07-21T12:57:35.581Z,26.01
2023-07-21T12:58:35.617Z,26.03
2023-07-21T12:59:35.658Z,26.04
2023-07-21T13:00:35.695Z,25.88
2023-07-21T13:01:35.851Z,25.89
2023-07-21T13:02:35.906Z,25.79
2023-07-21T13:03:35.911Z,25.60
2023-07-21T13:04:36.126Z,25.71
2023-07-21T13:05:49.879Z,25.49
2023-07-21T13:06:36.902Z,25.38
2023-07-21T13:07:35.916Z,25.48
2023-07-21T13:08:35.982Z,25.56
2023-07-21T13:09:35.974Z,25.76
2023-07-21T13:10:36.014Z,25.85
2023-07-21T13:11:36.040Z,25.94
2023-07-21T13:12:36.073Z,25.84
2023-07-21T13:13:36.106Z,25.88
2023-07-21T13:14:36.157Z,25.66
2023-07-21T13:15:36.171Z,25.47
2023-07-21T13:16:36.342Z,25.29
2023-07-21T13:17:36.276Z,25.08
2023-07-21T13:18:36.306Z,25.04
2023-07-21T13:19:36.316Z,24.74
2023-07-21T13:20:36.350Z,24.32
2023-07-21T13:21:36.369Z,24.07
2023-07-21T13:22:36.402Z,24.04
2023-07-21T13:23:36.446Z,24.07
2023-07-21T13:24:36.581Z,24.09
2023-07-21T13:25:36.496Z,24.04
2023-07-21T13:26:36.532Z,24.08
2023-07-21T13:27:36.565Z,24.15
2023-07-21T13:28:36.617Z,24.22
2023-07-21T13:29:36.643Z,24.15
2023-07-21T13:30:36.685Z,24.07
2023-07-21T13:31:36.744Z,23.99
2023-07-21T13:32:36.984Z,24.00
2023-07-21T13:33:36.966Z,24.11
2023-07-21T13:34:36.801Z,24.08
2023-07-21T13:35:36.848Z,24.04
2023-07-21T13:36:36.891Z,24.04
2023-07-21T13:38:36.932Z,24.09
2023-07-21T13:42:37.094Z,23.48
2023-07-21T13:43:37.288Z,23.32
2023-07-21T13:49:37.480Z,23.10
2023-07-21T13:51:37.339Z,22.88
2023-07-21T13:52:37.359Z,22.71
2023-07-21T13:53:38.322Z,22.89
2023-07-21T13:54:37.734Z,22.96
2023-07-21T13:55:37.453Z,22.84
2023-07-21T13:57:37.537Z,23.09
2023-07-21T13:58:37.589Z,23.21
2023-07-21T13:59:37.579Z,23.60
2023-07-21T14:01:37.703Z,24.03
2023-07-21T14:02:37.781Z,24.33
2023-07-21T14:08:37.862Z,25.00
2023-07-21T14:09:40.580Z,24.67
2023-07-21T14:10:37.931Z,24.61
2023-07-21T14:11:37.978Z,24.64
2023-07-21T14:12:38.193Z,24.54
2023-07-21T14:13:38.369Z,24.42
2023-07-21T14:14:38.371Z,24.54
2023-07-21T14:15:38.107Z,24.45
2023-07-21T14:16:38.161Z,24.30
2023-07-21T14:17:38.471Z,24.18
2023-07-21T14:18:38.203Z,23.97
2023-07-21T14:19:38.426Z,23.85
2023-07-21T14:20:38.280Z,23.78
2023-07-21T14:21:38.309Z,23.78
2023-07-21T14:22:38.315Z,23.57
2023-07-21T14:23:38.343Z,23.48
2023-07-21T14:24:38.409Z,23.28
2023-07-21T14:25:38.422Z,23.22
2023-07-21T14:26:38.648Z,22.96
2023-07-21T14:27:39.712Z,22.79
2023-07-21T14:28:38.513Z,22.81
2023-07-21T14:29:38.537Z,22.55
2023-07-21T14:30:38.674Z,22.52
2023-07-21T14:31:38.613Z,22.55
2023-07-21T14:33:38.665Z,22.31
2023-07-21T14:34:38.704Z,22.38
2023-07-21T14:35:38.716Z,22.39
2023-07-21T14:36:38.753Z,22.12
2023-07-21T14:37:39.124Z,21.96
2023-07-21T14:38:38.820Z,21.86
2023-07-21T14:40:38.894Z,21.74
2023-07-21T14:42:38.951Z,21.56
2023-07-21T14:43:39.165Z,21.56
2023-07-21T14:44:39.006Z,21.45
2023-07-21T14:45:39.031Z,21.46
2023-07-21T14:46:39.770Z,21.41
2023-07-21T14:50:40.125Z,21.22
2023-07-21T14:56:39.906Z,20.98
2023-07-21T15:01:39.959Z,20.97
2023-07-21T15:03:39.891Z,20.88
2023-07-21T15:23:40.230Z,20.40
2023-07-21T15:24:42.269Z,20.34
2023-07-21T15:29:40.407Z,20.27
2023-07-21T15:30:42.503Z,20.15
2023-07-21T16:00:41.758Z,20.27
2023-07-21T16:04:44.049Z,20.40
2023-07-21T16:09:42.093Z,20.40
2023-07-21T16:21:42.680Z,20.58
2023-07-21T16:24:43.422Z,20.71
2023-07-21T16:40:43.384Z,21.12
2023-07-21T16:42:43.201Z,21.18
2023-07-21T16:53:44.341Z,21.06
2023-07-21T17:07:44.866Z,21.62
2023-07-21T17:08:44.188Z,21.67
2023-07-21T17:17:44.392Z,21.58
2023-07-21T17:22:44.016Z,21.59
2023-07-21T17:29:44.431Z,21.38
2023-07-21T17:33:50.829Z,21.18
2023-07-21T17:46:45.036Z,20.94
2023-07-21T17:56:46.447Z,20.96
2023-07-21T18:03:45.629Z,20.88
2023-07-21T18:22:46.981Z,20.61
2023-07-21T18:28:46.118Z,20.63
2023-07-21T18:30:46.968Z,20.54
2023-07-21T18:56:49.250Z,19.72
2023-07-21T18:57:46.656Z,19.70
2023-07-21T18:58:46.685Z,19.71
2023-07-21T19:00:46.832Z,19.74
2023-07-21T19:01:46.843Z,19.57
2023-07-21T19:02:46.858Z,19.68
2023-07-21T19:03:47.431Z,19.56
2023-07-21T19:04:46.889Z,19.65
2023-07-21T19:06:44.463Z,19.47
2023-07-21T19:07:44.504Z,19.49
2023-07-21T19:08:44.521Z,19.50
2023-07-21T19:09:44.569Z,19.50
2023-07-21T19:10:44.598Z,19.46
2023-07-21T19:11:44.617Z,19.47
2023-07-21T19:12:44.635Z,19.45
2023-07-21T19:13:44.676Z,19.46
2023-07-21T19:14:44.699Z,19.37
2023-07-21T19:15:47.557Z,19.34
2023-07-21T19:16:44.821Z,19.28
2023-07-21T19:18:27.337Z,19.32
2023-07-21T19:19:27.363Z,19.32
2023-07-21T19:20:27.391Z,19.30
2023-07-21T19:21:27.674Z,19.17
2023-07-21T19:22:27.449Z,19.19
2023-07-21T19:23:27.486Z,19.20
2023-07-21T19:24:27.556Z,19.15
2023-07-21T19:25:27.536Z,19.17
2023-07-21T19:26:27.562Z,19.23
2023-07-21T19:27:27.595Z,19.23
2023-07-21T19:28:27.636Z,19.16
2023-07-21T19:29:27.684Z,19.17
2023-07-21T19:30:27.693Z,19.09
2023-07-21T19:31:28.875Z,19.15
2023-07-21T19:33:27.989Z,19.07
2023-07-21T19:34:27.813Z,19.10
2023-07-21T19:37:27.889Z,19.06
2023-07-21T19:38:28.131Z,18.97
2023-07-21T19:40:27.990Z,18.87
2023-07-21T19:45:28.336Z,18.79
2023-07-21T19:47:28.937Z,18.79
2023-07-21T19:51:28.747Z,18.68
2023-07-21T19:53:28.576Z,18.82
2023-07-21T19:54:28.398Z,18.82
2023-07-21T19:55:29.329Z,18.82
2023-07-21T20:00:30.102Z,18.66
2023-07-21T20:01:29.381Z,18.72
2023-07-21T20:03:28.832Z,18.65
2023-07-21T20:05:29.137Z,18.57
2023-07-21T20:07:28.813Z,18.61
2023-07-21T20:10:29.078Z,18.56
2023-07-21T20:17:29.286Z,18.34
2023-07-21T20:29:30.750Z,17.92
2023-07-21T20:31:42.512Z,17.90
2023-07-21T20:33:30.455Z,18.02
2023-07-21T20:56:30.219Z,17.25
2023-07-21T21:33:31.982Z,16.06
2023-07-21T21:50:31.794Z,15.58
2023-07-21T21:51:32.186Z,15.58
2023-07-21T21:52:32.014Z,15.59
2023-07-21T21:53:32.541Z,15.62
2023-07-21T21:55:32.107Z,15.49
2023-07-21T21:56:32.491Z,15.41
2023-07-21T21:57:31.990Z,15.43
2023-07-21T22:18:33.526Z,15.30
2023-07-21T22:21:32.930Z,15.22
2023-07-21T22:22:33.065Z,15.26
2023-07-21T22:25:33.156Z,15.10
2023-07-21T22:33:33.478Z,15.13
2023-07-21T22:34:33.637Z,15.05
2023-07-21T22:42:33.208Z,15.00
2023-07-21T22:51:33.683Z,14.67
2023-07-21T22:58:34.978Z,14.57
2023-07-21T23:03:34.025Z,14.46
2023-07-21T23:05:33.890Z,14.45
2023-07-21T23:06:34.544Z,14.36
2023-07-21T23:07:34.127Z,14.42
2023-07-21T23:33:34.657Z,14.01
2023-07-21T23:38:48.324Z,13.91
